Time;durP1;ratioP1;P1;durP2;ratioP2;P2;SDS_P1;SDS_P2;PMS_P1;PMS_P2;Temp;Humidity;BMP_temperature;BMP_pressure;BME280_temperature;BME280_humidity;BME280_pressure;Samples;Min_cycle;Max_cycle;Signal;HPM_P1;HPM_P2
2023/08/19 00:01:08;;;;;;;;;20.00;18.00;;;;;;;;5055527;28;45334;-85
2023/08/19 00:03:34;;;;;;;;;18.67;16.33;;;;;;;;5057376;22;45827;-67
2023/08/19 00:06:09;;;;;;;;;19.67;19.67;;;;;;;;5055868;28;45865;-67
2023/08/19 00:08:34;;;;;;;;;19.00;18.67;;;;;;;;5071661;28;45780;-66
2023/08/19 00:11:00;;;;;;;;;22.67;18.67;;;;;;;;5076943;28;45686;-66
2023/08/19 00:13:25;;;;;;;;;19.00;16.00;;;;;;;;5050771;28;45831;-66
2023/08/19 00:15:51;;;;;;;;;19.67;19.67;;;;;;;;5068533;28;45504;-66
2023/08/19 00:18:16;;;;;;;;;21.00;21.00;;;;;;;;5073912;28;46804;-69
2023/08/19 00:20:41;;;;;;;;;19.00;16.33;;;;;;;;5055851;28;45411;-69
2023/08/19 00:23:07;;;;;;;;;22.25;20.50;;;;;;;;5057217;28;45839;-66
2023/08/19 00:25:33;;;;;;;;;16.33;16.33;;;;;;;;5036773;28;47005;-64
2023/08/19 00:27:59;;;;;;;;;20.67;18.33;;;;;;;;5054492;28;45506;-66
2023/08/19 00:30:24;;;;;;;;;25.67;22.00;;;;;;;;5064738;28;45302;-65
2023/08/19 00:32:49;;;;;;;;;21.67;19.00;;;;;;;;5067547;28;45354;-65
2023/08/19 00:35:15;;;;;;;;;20.00;19.67;;;;;;;;5070342;28;45404;-66
2023/08/19 00:37:40;;;;;;;;;23.00;21.00;;;;;;;;5067741;28;46376;-65
2023/08/19 00:40:07;;;;;;;;;18.67;18.67;;;;;;;;5062881;28;45318;-67
2023/08/19 00:42:32;;;;;;;;;20.33;18.33;;;;;;;;5058793;28;45498;-65
2023/08/19 00:44:57;;;;;;;;;16.67;16.00;;;;;;;;5056002;28;45643;-65
2023/08/19 00:47:23;;;;;;;;;16.67;16.67;;;;;;;;5075664;28;45855;-68
2023/08/19 00:49:49;;;;;;;;;23.00;19.33;;;;;;;;5066772;28;45363;-65
2023/08/19 00:52:14;;;;;;;;;17.67;17.00;;;;;;;;5067713;28;45418;-66
2023/08/19 00:54:40;;;;;;;;;22.67;18.33;;;;;;;;5070848;28;45488;-65
2023/08/19 00:57:05;;;;;;;;;25.33;20.67;;;;;;;;5058300;28;45399;-65
2023/08/19 00:59:30;;;;;;;;;24.67;20.00;;;;;;;;5048173;28;45343;-64
2023/08/19 01:01:56;;;;;;;;;17.33;17.33;;;;;;;;5064632;28;45350;-67
2023/08/19 01:04:21;;;;;;;;;21.67;20.33;;;;;;;;5075184;27;45334;-65
2023/08/19 01:06:49;;;;;;;;;21.67;19.33;;;;;;;;5042265;28;47426;-67
2023/08/19 01:09:30;;;;;;;;;20.00;18.33;;;;;;;;5058109;28;46547;-65
2023/08/19 01:12:10;;;;;;;;;20.67;18.67;;;;;;;;5046587;28;45812;-66
2023/08/19 01:14:43;;;;;;;;;21.33;19.33;;;;;;;;5059614;28;45348;-67
2023/08/19 01:17:10;;;;;;;;;20.67;18.00;;;;;;;;5055957;28;45448;-66
2023/08/19 01:19:41;;;;;;;;;8.00;8.00;;;;;;;;5052157;28;45345;-68
2023/08/19 01:22:08;;;;;;;;;20.75;19.75;;;;;;;;5048812;28;45708;-67
2023/08/19 01:24:34;;;;;;;;;18.33;18.33;;;;;;;;5060826;28;45669;-65
2023/08/19 01:27:01;;;;;;;;;17.00;15.67;;;;;;;;5059873;28;46230;-67
2023/08/19 01:29:26;;;;;;;;;15.25;15.25;;;;;;;;5061632;28;45617;-67
2023/08/19 01:31:52;;;;;;;;;5.00;4.33;;;;;;;;5059407;28;45388;-66
2023/08/19 01:34:18;;;;;;;;;16.00;16.00;;;;;;;;5065348;28;45863;-68
2023/08/19 01:36:44;;;;;;;;;19.00;16.00;;;;;;;;5058466;28;45322;-68
2023/08/19 01:39:10;;;;;;;;;17.00;13.50;;;;;;;;5047945;28;45814;-66
2023/08/19 01:41:36;;;;;;;;;14.67;13.33;;;;;;;;5057639;28;45517;-66
2023/08/19 01:44:02;;;;;;;;;15.00;15.00;;;;;;;;5057808;28;45370;-66
2023/08/19 01:46:27;;;;;;;;;12.50;12.50;;;;;;;;5058000;28;45342;-69
2023/08/19 01:48:52;;;;;;;;;18.25;15.50;;;;;;;;5049465;28;45354;-66
2023/08/19 01:51:18;;;;;;;;;20.50;14.25;;;;;;;;5043399;28;45535;-65
2023/08/19 01:53:43;;;;;;;;;18.75;14.25;;;;;;;;5056651;28;45393;-67
2023/08/19 01:56:09;;;;;;;;;17.75;15.75;;;;;;;;5063118;28;46366;-68
2023/08/19 01:58:34;;;;;;;;;15.50;15.50;;;;;;;;5056584;28;45417;-66
2023/08/19 02:01:00;;;;;;;;;13.67;13.33;;;;;;;;5065029;28;45405;-66
2023/08/19 02:03:25;;;;;;;;;14.67;14.00;;;;;;;;5064098;27;45666;-66
2023/08/19 02:05:50;;;;;;;;;14.00;14.00;;;;;;;;5067396;28;46453;-66
2023/08/19 02:08:15;;;;;;;;;15.00;14.00;;;;;;;;5069133;28;45633;-68
2023/08/19 02:10:42;;;;;;;;;14.67;13.67;;;;;;;;5041206;28;45311;-67
2023/08/19 02:13:08;;;;;;;;;15.67;13.33;;;;;;;;5069271;28;45285;-68
2023/08/19 02:15:33;;;;;;;;;16.50;16.50;;;;;;;;5064330;28;45381;-71
2023/08/19 02:17:58;;;;;;;;;14.25;14.25;;;;;;;;5055958;28;45789;-70
2023/08/19 02:20:24;;;;;;;;;18.33;14.00;;;;;;;;5057592;28;45566;-69
2023/08/19 02:22:49;;;;;;;;;18.00;15.33;;;;;;;;5058393;28;45794;-70
2023/08/19 02:25:14;;;;;;;;;18.75;14.75;;;;;;;;5073568;28;46536;-69
2023/08/19 02:27:39;;;;;;;;;17.67;13.00;;;;;;;;5064635;28;45790;-71
2023/08/19 02:30:05;;;;;;;;;17.67;16.67;;;;;;;;5055981;28;45373;-70
2023/08/19 02:32:30;;;;;;;;;14.33;13.33;;;;;;;;5072083;28;45413;-71
2023/08/19 02:34:55;;;;;;;;;12.33;12.33;;;;;;;;5075865;28;45424;-69
2023/08/19 02:37:21;;;;;;;;;13.75;13.75;;;;;;;;5063827;28;45717;-70
2023/08/19 02:39:46;;;;;;;;;14.25;13.75;;;;;;;;5044175;28;45549;-70
2023/08/19 02:42:15;;;;;;;;;14.67;13.67;;;;;;;;5076311;28;45460;-69
2023/08/19 02:44:40;;;;;;;;;13.50;13.50;;;;;;;;5068524;28;46171;-70
2023/08/19 02:47:06;;;;;;;;;14.67;13.33;;;;;;;;5058062;28;45673;-69
2023/08/19 02:49:31;;;;;;;;;14.00;13.33;;;;;;;;5057233;28;45634;-70
2023/08/19 02:51:56;;;;;;;;;16.67;16.67;;;;;;;;5057653;28;45432;-70
2023/08/19 02:54:21;;;;;;;;;14.33;14.00;;;;;;;;5056713;28;45755;-71
2023/08/19 02:56:47;;;;;;;;;19.33;18.67;;;;;;;;5055797;28;45374;-69
2023/08/19 02:59:12;;;;;;;;;15.75;13.75;;;;;;;;5038113;28;45343;-69
2023/08/19 03:01:37;;;;;;;;;14.25;12.25;;;;;;;;5037484;28;45311;-70
2023/08/19 03:04:03;;;;;;;;;13.25;13.25;;;;;;;;5055730;28;45491;-69
2023/08/19 03:06:28;;;;;;;;;11.75;11.75;;;;;;;;5063108;28;45348;-70
2023/08/19 03:08:53;;;;;;;;;18.67;17.00;;;;;;;;5048965;28;45302;-69
2023/08/19 03:11:19;;;;;;;;;13.33;13.33;;;;;;;;5059332;28;45981;-70
2023/08/19 03:13:44;;;;;;;;;20.67;17.33;;;;;;;;5063540;28;46356;-70
2023/08/19 03:16:09;;;;;;;;;13.67;13.67;;;;;;;;5046562;28;45431;-71
2023/08/19 03:18:34;;;;;;;;;17.67;15.00;;;;;;;;5071000;28;45617;-70
2023/08/19 03:21:00;;;;;;;;;13.50;12.00;;;;;;;;5047591;28;46292;-73
2023/08/19 03:23:26;;;;;;;;;13.00;12.00;;;;;;;;5062923;28;45771;-71
2023/08/19 03:25:51;;;;;;;;;12.75;12.75;;;;;;;;5054745;28;45667;-70
2023/08/19 03:28:17;;;;;;;;;13.50;10.75;;;;;;;;5056472;28;45591;-71
2023/08/19 03:30:42;;;;;;;;;16.75;14.00;;;;;;;;5061996;28;45661;-71
2023/08/19 03:33:07;;;;;;;;;13.33;12.33;;;;;;;;5043209;28;46853;-71
2023/08/19 03:35:36;;;;;;;;;14.00;13.67;;;;;;;;5062546;28;45346;-71
2023/08/19 03:38:04;;;;;;;;;12.00;11.33;;;;;;;;5059913;28;45706;-70
2023/08/19 03:40:29;;;;;;;;;12.67;12.00;;;;;;;;5060821;28;45354;-72
2023/08/19 03:42:55;;;;;;;;;16.33;15.00;;;;;;;;5060337;28;45405;-69
2023/08/19 03:45:20;;;;;;;;;15.67;14.33;;;;;;;;5057537;28;45377;-71
2023/08/19 03:47:45;;;;;;;;;11.67;11.67;;;;;;;;5054630;28;45428;-70
2023/08/19 03:50:10;;;;;;;;;11.75;10.75;;;;;;;;5054517;28;45469;-70
2023/08/19 03:52:36;;;;;;;;;14.00;14.00;;;;;;;;5045549;28;47906;-71
2023/08/19 03:55:01;;;;;;;;;12.50;11.50;;;;;;;;5063887;28;45733;-70
2023/08/19 03:57:27;;;;;;;;;13.33;12.33;;;;;;;;5068948;28;45740;-68
2023/08/19 03:59:52;;;;;;;;;15.33;15.33;;;;;;;;5058946;28;45777;-70
2023/08/19 04:02:17;;;;;;;;;13.00;12.00;;;;;;;;5049340;28;47086;-72
2023/08/19 04:05:01;;;;;;;;;11.00;9.75;;;;;;;;5069513;28;45727;-68
2023/08/19 04:07:27;;;;;;;;;11.67;8.67;;;;;;;;5054672;28;45776;-69
2023/08/19 04:09:55;;;;;;;;;13.33;12.33;;;;;;;;5056452;28;45675;-69
2023/08/19 04:12:21;;;;;;;;;12.00;12.00;;;;;;;;5060915;28;45446;-70
2023/08/19 04:14:46;;;;;;;;;10.00;10.00;;;;;;;;5019226;28;45280;-70
2023/08/19 04:17:12;;;;;;;;;11.75;11.75;;;;;;;;5054395;28;45751;-71
2023/08/19 04:19:38;;;;;;;;;13.33;10.67;;;;;;;;5054047;28;45783;-70
2023/08/19 04:22:03;;;;;;;;;11.75;10.00;;;;;;;;5063690;28;46007;-71
2023/08/19 04:24:28;;;;;;;;;13.25;12.50;;;;;;;;5068323;28;45371;-70
2023/08/19 04:26:53;;;;;;;;;10.75;9.00;;;;;;;;5072030;28;45657;-70
2023/08/19 04:29:19;;;;;;;;;15.00;9.50;;;;;;;;5058093;28;45729;-68
2023/08/19 04:31:44;;;;;;;;;10.50;8.75;;;;;;;;5061818;28;45457;-69
2023/08/19 04:34:09;;;;;;;;;8.75;7.50;;;;;;;;5058380;28;45307;-69
2023/08/19 04:36:34;;;;;;;;;9.50;9.00;;;;;;;;5058502;28;45737;-69
2023/08/19 04:39:00;;;;;;;;;8.25;6.00;;;;;;;;5060254;28;45581;-71
2023/08/19 04:41:25;;;;;;;;;10.50;9.25;;;;;;;;5059955;28;46244;-69
2023/08/19 04:43:50;;;;;;;;;7.00;7.00;;;;;;;;5065973;28;45367;-69
2023/08/19 04:46:16;;;;;;;;;8.00;7.00;;;;;;;;5066351;28;45278;-70
2023/08/19 04:48:41;;;;;;;;;7.00;7.00;;;;;;;;5063101;28;45665;-70
2023/08/19 04:51:07;;;;;;;;;10.25;9.25;;;;;;;;5060160;28;45630;-70
2023/08/19 04:53:32;;;;;;;;;8.50;6.00;;;;;;;;5059287;28;45434;-69
2023/08/19 04:56:04;;;;;;;;;8.50;6.25;;;;;;;;5042616;28;45438;-69
2023/08/19 04:58:29;;;;;;;;;10.25;9.25;;;;;;;;5058364;28;45282;-69
2023/08/19 05:00:55;;;;;;;;;5.25;4.50;;;;;;;;5066110;28;46973;-70
2023/08/19 05:03:20;;;;;;;;;9.50;8.00;;;;;;;;5058634;28;46362;-70
2023/08/19 05:05:45;;;;;;;;;6.25;6.00;;;;;;;;5074647;28;45816;-70
2023/08/19 05:08:11;;;;;;;;;7.00;7.00;;;;;;;;5057604;28;45765;-69
2023/08/19 05:10:36;;;;;;;;;9.75;8.00;;;;;;;;5058852;28;46339;-69
2023/08/19 05:13:01;;;;;;;;;4.75;4.75;;;;;;;;5059239;28;45307;-68
2023/08/19 05:15:27;;;;;;;;;9.00;8.00;;;;;;;;5073849;28;45368;-70
2023/08/19 05:17:52;;;;;;;;;6.75;6.75;;;;;;;;5058910;28;45436;-69
2023/08/19 05:20:17;;;;;;;;;5.00;5.00;;;;;;;;5056071;28;45531;-70
2023/08/19 05:22:42;;;;;;;;;6.50;6.00;;;;;;;;5065219;28;45461;-68
2023/08/19 05:25:08;;;;;;;;;6.00;5.25;;;;;;;;5065037;28;45532;-68
2023/08/19 05:27:34;;;;;;;;;6.25;6.00;;;;;;;;5060117;28;45632;-69
2023/08/19 05:29:59;;;;;;;;;6.50;5.50;;;;;;;;5056871;28;45774;-70
2023/08/19 05:32:24;;;;;;;;;4.75;3.75;;;;;;;;5056977;28;45659;-69
2023/08/19 05:34:49;;;;;;;;;4.00;4.00;;;;;;;;5067034;28;45401;-69
2023/08/19 05:37:15;;;;;;;;;4.00;4.00;;;;;;;;5058995;28;45694;-68
2023/08/19 05:39:40;;;;;;;;;5.25;3.00;;;;;;;;5064041;28;45767;-69
2023/08/19 05:42:06;;;;;;;;;4.00;4.00;;;;;;;;5064544;28;45361;-68
2023/08/19 05:44:31;;;;;;;;;4.00;4.00;;;;;;;;5043381;28;45375;-68
2023/08/19 05:46:56;;;;;;;;;5.25;4.00;;;;;;;;5055939;28;45370;-69
2023/08/19 05:49:22;;;;;;;;;4.75;3.00;;;;;;;;5056489;28;45411;-69
2023/08/19 05:51:47;;;;;;;;;4.50;4.50;;;;;;;;5056123;28;45484;-69
2023/08/19 05:54:12;;;;;;;;;2.75;2.75;;;;;;;;5056639;28;45374;-69
2023/08/19 05:56:38;;;;;;;;;4.00;3.00;;;;;;;;5038258;28;46030;-69
2023/08/19 05:59:03;;;;;;;;;3.00;3.00;;;;;;;;5056191;28;45377;-69
2023/08/19 06:01:28;;;;;;;;;4.75;4.25;;;;;;;;5037970;28;45307;-70
2023/08/19 06:03:53;;;;;;;;;1.25;1.00;;;;;;;;5065456;28;45786;-70
2023/08/19 06:06:19;;;;;;;;;4.50;4.50;;;;;;;;5074077;28;45733;-69
2023/08/19 06:08:44;;;;;;;;;5.25;3.75;;;;;;;;5075623;28;46263;-69
2023/08/19 06:11:09;;;;;;;;;3.00;3.00;;;;;;;;5072095;28;45590;-69
2023/08/19 06:13:35;;;;;;;;;4.75;3.50;;;;;;;;5043086;28;45674;-69
2023/08/19 06:16:00;;;;;;;;;7.00;3.75;;;;;;;;5063791;28;46071;-69
2023/08/19 06:18:26;;;;;;;;;10.00;5.25;;;;;;;;5060840;28;46042;-69
2023/08/19 06:20:51;;;;;;;;;6.00;4.75;;;;;;;;5060626;28;45532;-69
2023/08/19 06:23:18;;;;;;;;;5.25;4.25;;;;;;;;5056073;28;45307;-69
2023/08/19 06:25:43;;;;;;;;;4.25;4.25;;;;;;;;5060014;28;45895;-68
2023/08/19 06:28:08;;;;;;;;;5.25;3.00;;;;;;;;5058585;28;46222;-68
2023/08/19 06:30:34;;;;;;;;;5.25;3.25;;;;;;;;5039570;28;45520;-69
2023/08/19 06:32:59;;;;;;;;;3.00;3.00;;;;;;;;5058502;28;45437;-69
2023/08/19 06:35:24;;;;;;;;;4.00;4.00;;;;;;;;5057929;28;45591;-69
2023/08/19 06:37:53;;;;;;;;;3.25;3.25;;;;;;;;5055782;28;46385;-71
2023/08/19 06:40:20;;;;;;;;;5.25;4.00;;;;;;;;5059512;28;45754;-69
2023/08/19 06:42:45;;;;;;;;;3.00;3.00;;;;;;;;5056268;28;45330;-69
2023/08/19 06:45:11;;;;;;;;;3.25;3.00;;;;;;;;5055165;28;45405;-68
2023/08/19 06:47:38;;;;;;;;;4.00;3.00;;;;;;;;5059399;28;45919;-70
2023/08/19 06:50:03;;;;;;;;;4.00;4.00;;;;;;;;5059340;28;45377;-69
2023/08/19 06:52:29;;;;;;;;;2.00;2.00;;;;;;;;5059259;28;45392;-68
2023/08/19 06:54:54;;;;;;;;;2.50;2.00;;;;;;;;5059135;28;46019;-70
2023/08/19 06:57:32;;;;;;;;;6.75;4.00;;;;;;;;5037387;28;45941;-70
2023/08/19 07:00:01;;;;;;;;;3.00;3.00;;;;;;;;5058288;28;45337;-70
2023/08/19 07:02:28;;;;;;;;;3.75;2.75;;;;;;;;5056567;28;45739;-70
2023/08/19 07:04:53;;;;;;;;;5.00;4.25;;;;;;;;5056292;28;45515;-68
2023/08/19 07:07:21;;;;;;;;;7.00;4.00;;;;;;;;5071872;28;47612;-69
2023/08/19 07:09:47;;;;;;;;;3.00;3.00;;;;;;;;5068650;28;45580;-69
2023/08/19 07:12:12;;;;;;;;;4.50;3.50;;;;;;;;5072157;28;45462;-69
2023/08/19 07:14:39;;;;;;;;;4.25;3.25;;;;;;;;5068696;28;45859;-70
2023/08/19 07:17:05;;;;;;;;;3.50;3.50;;;;;;;;5071803;28;45393;-71
2023/08/19 07:19:37;;;;;;;;;5.00;5.00;;;;;;;;5091585;22;45496;-87
2023/08/19 07:22:03;;;;;;;;;4.50;4.50;;;;;;;;5060689;28;45435;-88
2023/08/19 07:24:28;;;;;;;;;4.50;4.50;;;;;;;;5080508;27;46016;-86
2023/08/19 07:26:53;;;;;;;;;7.00;5.00;;;;;;;;5067304;28;47129;-85
2023/08/19 07:29:20;;;;;;;;;3.00;3.00;;;;;;;;5083257;27;45436;-84
2023/08/19 07:31:47;;;;;;;;;5.75;5.75;;;;;;;;5073489;28;45411;-86
2023/08/19 07:34:15;;;;;;;;;6.25;4.25;;;;;;;;5068071;27;46762;-86
2023/08/19 07:36:41;;;;;;;;;5.50;5.00;;;;;;;;5094336;27;45700;-87
2023/08/19 07:39:06;;;;;;;;;5.25;3.75;;;;;;;;5056835;28;45351;-85
2023/08/19 07:41:32;;;;;;;;;3.75;3.75;;;;;;;;5094172;27;45341;-84
2023/08/19 07:43:57;;;;;;;;;4.50;4.50;;;;;;;;5080356;27;46800;-86
2023/08/19 07:46:22;;;;;;;;;5.00;4.50;;;;;;;;5071232;27;47335;-85
2023/08/19 07:48:48;;;;;;;;;6.75;4.50;;;;;;;;5070707;28;45522;-85
2023/08/19 07:51:13;;;;;;;;;3.50;3.00;;;;;;;;5069929;27;45432;-85
2023/08/19 07:53:39;;;;;;;;;4.00;3.00;;;;;;;;5097277;27;45398;-85
2023/08/19 07:56:05;;;;;;;;;6.75;5.25;;;;;;;;5062920;28;45548;-85
2023/08/19 07:58:31;;;;;;;;;6.25;4.25;;;;;;;;5065977;28;45311;-87
2023/08/19 08:00:56;;;;;;;;;4.25;4.25;;;;;;;;5084266;27;45351;-87
2023/08/19 08:03:22;;;;;;;;;6.25;4.00;;;;;;;;5075663;28;46486;-86
2023/08/19 08:05:47;;;;;;;;;4.00;4.00;;;;;;;;5077202;27;47135;-84
2023/08/19 08:08:13;;;;;;;;;4.00;4.00;;;;;;;;5074221;27;45583;-86
2023/08/19 08:10:39;;;;;;;;;7.00;5.25;;;;;;;;5079692;28;45375;-86
2023/08/19 08:13:05;;;;;;;;;3.25;3.25;;;;;;;;5061243;28;45787;-85
2023/08/19 08:15:30;;;;;;;;;5.50;5.50;;;;;;;;5089653;27;45533;-86
2023/08/19 08:17:56;;;;;;;;;8.00;5.75;;;;;;;;5081081;28;45954;-85
2023/08/19 08:20:22;;;;;;;;;7.00;6.00;;;;;;;;5070680;27;45393;-87
2023/08/19 08:22:47;;;;;;;;;4.00;4.00;;;;;;;;5070038;27;45594;-86
2023/08/19 08:25:12;;;;;;;;;3.00;3.00;;;;;;;;5100483;27;46072;-85
2023/08/19 08:27:38;;;;;;;;;6.50;3.75;;;;;;;;5076625;27;45636;-85
2023/08/19 08:30:05;;;;;;;;;5.75;5.25;;;;;;;;5082701;27;45920;-85
2023/08/19 08:32:30;;;;;;;;;4.50;4.50;;;;;;;;5093508;27;45756;-85
2023/08/19 08:34:56;;;;;;;;;3.50;3.50;;;;;;;;5072713;27;48102;-84
2023/08/19 08:37:21;;;;;;;;;3.50;3.50;;;;;;;;5069480;28;45342;-85
2023/08/19 08:39:46;;;;;;;;;3.00;3.00;;;;;;;;5101201;27;45488;-86
2023/08/19 08:42:12;;;;;;;;;5.00;5.00;;;;;;;;5085722;28;45865;-85
2023/08/19 08:44:37;;;;;;;;;4.50;4.25;;;;;;;;5077997;27;45417;-86
2023/08/19 08:47:03;;;;;;;;;3.00;3.00;;;;;;;;5083539;27;45694;-85
2023/08/19 08:49:29;;;;;;;;;4.25;2.75;;;;;;;;5070195;27;44757;-85
2023/08/19 08:51:59;;;;;;;;;3.00;3.00;;;;;;;;5065417;28;45345;-86
2023/08/19 08:54:24;;;;;;;;;10.00;7.00;;;;;;;;5072541;28;48137;-86
2023/08/19 08:56:50;;;;;;;;;7.00;4.00;;;;;;;;5075071;28;45345;-85
2023/08/19 08:59:16;;;;;;;;;2.75;2.00;;;;;;;;5076562;27;45616;-85
2023/08/19 09:01:42;;;;;;;;;6.25;6.25;;;;;;;;5098210;27;45303;-86
2023/08/19 09:04:08;;;;;;;;;6.25;5.25;;;;;;;;5069796;27;47058;-86
2023/08/19 09:06:36;;;;;;;;;6.25;4.50;;;;;;;;5074422;27;45723;-87
2023/08/19 09:09:03;;;;;;;;;3.00;3.00;;;;;;;;5073137;27;45467;-87
2023/08/19 09:11:33;;;;;;;;;2.25;2.25;;;;;;;;5102972;27;45743;-86
2023/08/19 09:14:07;;;;;;;;;4.75;3.00;;;;;;;;5068902;27;47179;-87
2023/08/19 09:16:32;;;;;;;;;6.50;4.50;;;;;;;;5058137;28;45375;-87
2023/08/19 09:18:58;;;;;;;;;3.00;2.00;;;;;;;;5087513;27;45711;-88
2023/08/19 09:21:24;;;;;;;;;4.75;3.00;;;;;;;;5075590;28;45502;-85
2023/08/19 09:23:51;;;;;;;;;3.00;3.00;;;;;;;;5074776;27;46770;-86
2023/08/19 09:26:17;;;;;;;;;3.75;3.75;;;;;;;;5079898;28;45926;-86
2023/08/19 09:28:43;;;;;;;;;3.00;3.00;;;;;;;;5067090;27;45547;-87
2023/08/19 09:31:20;;;;;;;;;4.75;3.00;;;;;;;;5085947;27;45412;-85
2023/08/19 09:33:47;;;;;;;;;4.25;2.50;;;;;;;;5071928;27;46405;-88
2023/08/19 09:36:12;;;;;;;;;9.00;5.00;;;;;;;;5075051;28;45728;-87
2023/08/19 09:38:37;;;;;;;;;4.00;3.00;;;;;;;;5047339;28;45308;-86
2023/08/19 09:41:06;;;;;;;;;3.50;3.50;;;;;;;;5094692;27;45520;-86
2023/08/19 09:43:32;;;;;;;;;3.25;3.25;;;;;;;;5088047;27;45561;-87
2023/08/19 09:45:58;;;;;;;;;3.00;3.00;;;;;;;;5075402;28;45422;-86
2023/08/19 09:48:24;;;;;;;;;3.50;3.50;;;;;;;;5079778;27;45661;-85
2023/08/19 09:50:49;;;;;;;;;7.25;5.75;;;;;;;;5065900;28;46141;-86
2023/08/19 09:53:16;;;;;;;;;6.00;5.00;;;;;;;;5066949;27;45400;-87
2023/08/19 09:55:46;;;;;;;;;5.25;5.00;;;;;;;;5079221;27;45755;-86
2023/08/19 09:58:11;;;;;;;;;3.00;3.00;;;;;;;;5068784;27;44997;-87
2023/08/19 10:00:37;;;;;;;;;5.25;4.75;;;;;;;;5067613;28;46682;-87
2023/08/19 10:03:02;;;;;;;;;6.25;4.75;;;;;;;;5073239;27;46928;-85
2023/08/19 10:05:31;;;;;;;;;5.25;3.50;;;;;;;;5086766;27;45449;-87
2023/08/19 10:08:01;;;;;;;;;9.50;6.50;;;;;;;;5073715;28;45746;-86
2023/08/19 10:10:29;;;;;;;;;8.25;6.75;;;;;;;;5080613;28;45584;-86
2023/08/19 10:12:56;;;;;;;;;6.00;5.50;;;;;;;;5089238;27;45788;-86
2023/08/19 10:15:21;;;;;;;;;5.25;4.00;;;;;;;;5070183;28;45738;-85
2023/08/19 10:17:51;;;;;;;;;15.75;9.75;;;;;;;;5079211;28;45352;-86
2023/08/19 10:20:18;;;;;;;;;6.25;5.50;;;;;;;;5088356;27;45810;-85
2023/08/19 10:22:47;;;;;;;;;8.25;5.00;;;;;;;;5091024;28;46777;-85
2023/08/19 10:25:13;;;;;;;;;5.00;4.00;;;;;;;;5101583;27;44705;-86
2023/08/19 10:27:40;;;;;;;;;5.75;5.25;;;;;;;;5085391;28;45174;-85
2023/08/19 10:30:24;;;;;;;;;8.50;7.00;;;;;;;;5077305;28;46303;-85
2023/08/19 10:32:50;;;;;;;;;6.00;6.00;;;;;;;;5074076;27;47279;-88
2023/08/19 10:35:16;;;;;;;;;8.50;6.00;;;;;;;;5076259;28;45326;-87
2023/08/19 10:37:42;;;;;;;;;6.00;4.50;;;;;;;;5074879;28;45472;-87
2023/08/19 10:40:14;;;;;;;;;4.50;4.50;;;;;;;;5083286;27;45750;-87
2023/08/19 10:42:40;;;;;;;;;4.75;4.75;;;;;;;;5068290;28;46772;-87
2023/08/19 10:45:16;;;;;;;;;5.50;4.50;;;;;;;;5062151;28;45722;-87
2023/08/19 10:47:41;;;;;;;;;5.25;4.00;;;;;;;;5069764;27;45210;-88
2023/08/19 10:50:09;;;;;;;;;6.00;5.00;;;;;;;;5080991;28;44819;-87
2023/08/19 10:52:36;;;;;;;;;4.75;4.00;;;;;;;;5074519;27;47586;-86
2023/08/19 10:55:06;;;;;;;;;0.00;0.00;;;;;;;;5099248;27;45381;-86
2023/08/19 10:57:31;;;;;;;;;2.75;2.75;;;;;;;;5077401;27;45542;-89
2023/08/19 10:59:59;;;;;;;;;4.00;3.00;;;;;;;;5092216;27;45642;-86
2023/08/19 11:02:25;;;;;;;;;4.00;4.00;;;;;;;;5071695;28;45986;-88
2023/08/19 11:04:51;;;;;;;;;3.00;3.00;;;;;;;;5064074;28;45671;-87
2023/08/19 11:07:18;;;;;;;;;3.25;3.25;;;;;;;;5074552;27;45355;-88
2023/08/19 11:09:50;;;;;;;;;3.25;3.25;;;;;;;;5067778;27;46278;-88
2023/08/19 11:12:16;;;;;;;;;4.75;3.50;;;;;;;;5083228;27;47185;-87
2023/08/19 11:14:49;;;;;;;;;6.25;5.00;;;;;;;;5090753;27;45494;-88
2023/08/19 11:17:15;;;;;;;;;3.00;3.00;;;;;;;;5085514;27;45815;-87
2023/08/19 11:19:40;;;;;;;;;3.50;3.50;;;;;;;;5084723;27;45855;-87
2023/08/19 11:22:06;;;;;;;;;5.50;3.00;;;;;;;;5071504;28;47178;-92
2023/08/19 11:24:50;;;;;;;;;4.00;4.00;;;;;;;;5093641;28;45206;-90
2023/08/19 11:27:16;;;;;;;;;2.75;2.75;;;;;;;;5081885;28;44855;-86
2023/08/19 11:29:44;;;;;;;;;4.00;4.00;;;;;;;;5072091;28;45621;-88
2023/08/19 11:32:09;;;;;;;;;3.50;3.00;;;;;;;;5089488;27;45362;-87
2023/08/19 11:34:34;;;;;;;;;5.00;4.00;;;;;;;;5094847;27;45413;-87
2023/08/19 11:37:03;;;;;;;;;3.00;3.00;;;;;;;;5092002;27;45361;-87
2023/08/19 11:39:37;;;;;;;;;2.00;2.00;;;;;;;;5076273;27;45956;-85
2023/08/19 11:42:03;;;;;;;;;0.75;0.75;;;;;;;;5083161;28;47214;-86
2023/08/19 11:44:28;;;;;;;;;3.00;2.00;;;;;;;;5088118;27;46304;-87
2023/08/19 11:46:56;;;;;;;;;0.75;0.50;;;;;;;;5106286;27;44795;-86
2023/08/19 11:49:21;;;;;;;;;2.00;2.00;;;;;;;;5078325;27;45697;-85
2023/08/19 11:51:47;;;;;;;;;2.25;1.25;;;;;;;;5080485;28;45705;-87
2023/08/19 11:54:13;;;;;;;;;1.00;1.00;;;;;;;;5076055;27;45758;-93
2023/08/19 11:56:52;;;;;;;;;1.25;1.25;;;;;;;;5075244;27;45750;-84
2023/08/19 11:59:18;;;;;;;;;3.25;2.00;;;;;;;;5049495;27;45750;-89
2023/08/19 12:01:47;;;;;;;;;2.00;1.00;;;;;;;;5106632;27;45302;-86
2023/08/19 12:04:15;;;;;;;;;0.80;0.80;;;;;;;;5092008;27;45334;-87
2023/08/19 12:06:41;;;;;;;;;2.00;1.25;;;;;;;;5085203;27;45590;-86
2023/08/19 12:09:06;;;;;;;;;2.25;1.00;;;;;;;;5078951;27;46640;-86
2023/08/19 12:11:33;;;;;;;;;1.00;1.00;;;;;;;;5063538;28;47966;-86
2023/08/19 12:13:59;;;;;;;;;1.00;1.00;;;;;;;;5075518;27;45474;-90
2023/08/19 12:16:24;;;;;;;;;1.50;1.50;;;;;;;;5057995;28;45823;-88
2023/08/19 12:18:49;;;;;;;;;2.50;1.00;;;;;;;;5084173;27;45485;-88
2023/08/19 12:21:15;;;;;;;;;1.75;1.75;;;;;;;;5074390;27;47006;-89
2023/08/19 12:23:40;;;;;;;;;1.25;1.25;;;;;;;;5085688;27;45798;-89
2023/08/19 12:26:05;;;;;;;;;1.25;1.25;;;;;;;;5086625;28;45290;-86
2023/08/19 12:28:31;;;;;;;;;0.75;0.75;;;;;;;;5077217;28;44811;-89
2023/08/19 12:30:56;;;;;;;;;2.50;2.00;;;;;;;;5089074;27;45329;-89
2023/08/19 12:33:21;;;;;;;;;4.25;2.50;;;;;;;;5074095;27;45341;-91
2023/08/19 12:35:48;;;;;;;;;1.75;1.75;;;;;;;;5075381;27;45821;-89
2023/08/19 12:38:14;;;;;;;;;2.00;2.00;;;;;;;;5070200;27;45994;-90
2023/08/19 12:40:40;;;;;;;;;2.50;2.00;;;;;;;;5068340;28;45394;-87
2023/08/19 12:43:05;;;;;;;;;2.25;2.00;;;;;;;;5074006;27;45542;-88
2023/08/19 12:45:30;;;;;;;;;3.25;2.00;;;;;;;;5084199;27;45287;-90
2023/08/19 12:47:56;;;;;;;;;3.50;2.25;;;;;;;;5092139;27;45572;-90
2023/08/19 12:50:21;;;;;;;;;3.00;3.00;;;;;;;;5087052;28;46845;-87
2023/08/19 12:52:50;;;;;;;;;1.00;1.00;;;;;;;;5094348;27;45217;-89
2023/08/19 12:55:22;;;;;;;;;2.00;2.00;;;;;;;;5092296;27;45217;-86
2023/08/19 12:57:47;;;;;;;;;2.75;2.00;;;;;;;;5092451;27;44840;-87
2023/08/19 13:00:15;;;;;;;;;3.00;2.00;;;;;;;;5073324;27;47648;-90
2023/08/19 13:02:40;;;;;;;;;2.00;1.00;;;;;;;;5088799;27;44739;-88
2023/08/19 13:05:06;;;;;;;;;1.00;1.00;;;;;;;;5086490;27;45354;-88
2023/08/19 13:07:31;;;;;;;;;1.00;1.00;;;;;;;;5078882;27;45901;-87
2023/08/19 13:09:59;;;;;;;;;2.00;1.00;;;;;;;;5069268;28;47188;-90
2023/08/19 13:12:25;;;;;;;;;2.40;1.60;;;;;;;;5070266;28;45404;-90
2023/08/19 13:14:50;;;;;;;;;1.00;1.00;;;;;;;;5071150;28;46040;-88
2023/08/19 13:17:15;;;;;;;;;2.00;2.00;;;;;;;;5080523;28;45425;-88
2023/08/19 13:19:41;;;;;;;;;2.25;2.00;;;;;;;;5063964;28;48086;-89
2023/08/19 13:22:07;;;;;;;;;1.00;0.75;;;;;;;;5085955;28;45536;-89
2023/08/19 13:24:33;;;;;;;;;1.25;1.25;;;;;;;;5088157;27;45433;-90
2023/08/19 13:26:58;;;;;;;;;4.00;2.00;;;;;;;;5067977;28;45584;-88
2023/08/19 13:29:24;;;;;;;;;1.00;1.00;;;;;;;;5070922;28;47176;-88
2023/08/19 13:31:49;;;;;;;;;1.00;1.00;;;;;;;;5094168;27;45430;-87
2023/08/19 13:34:15;;;;;;;;;1.00;1.00;;;;;;;;5078660;27;45741;-89
2023/08/19 13:36:44;;;;;;;;;1.50;1.50;;;;;;;;5093726;27;45796;-90
2023/08/19 13:39:09;;;;;;;;;1.50;1.00;;;;;;;;5087054;28;47526;-90
2023/08/19 13:41:34;;;;;;;;;1.00;0.75;;;;;;;;5082615;27;45522;-87
2023/08/19 13:44:00;;;;;;;;;0.00;0.00;;;;;;;;5110292;27;45549;-88
2023/08/19 13:46:26;;;;;;;;;0.00;0.00;;;;;;;;5089368;27;44799;-88
2023/08/19 13:48:52;;;;;;;;;0.00;0.00;;;;;;;;5081270;28;46304;-88
2023/08/19 13:51:18;;;;;;;;;0.00;0.00;;;;;;;;5073565;28;45649;-90
2023/08/19 13:53:47;;;;;;;;;1.25;1.25;;;;;;;;5070487;27;45527;-89
2023/08/19 13:56:13;;;;;;;;;1.00;1.00;;;;;;;;5084242;27;46558;-89
2023/08/19 13:58:38;;;;;;;;;0.00;0.00;;;;;;;;5070561;28;46909;-89
2023/08/19 14:01:10;;;;;;;;;0.25;0.25;;;;;;;;5087169;27;44705;-87
2023/08/19 14:03:36;;;;;;;;;0.25;0.25;;;;;;;;5089385;27;45103;-88
2023/08/19 14:06:02;;;;;;;;;1.50;1.50;;;;;;;;5074550;27;47256;-86
2023/08/19 14:08:28;;;;;;;;;1.00;1.00;;;;;;;;5084427;27;45367;-87
2023/08/19 14:10:54;;;;;;;;;1.00;1.00;;;;;;;;5067493;27;44760;-87
2023/08/19 14:13:21;;;;;;;;;1.00;1.00;;;;;;;;5075737;27;45664;-88
2023/08/19 14:15:46;;;;;;;;;2.75;1.25;;;;;;;;5084350;28;45119;-88
2023/08/19 14:18:12;;;;;;;;;1.00;1.00;;;;;;;;5098700;27;45630;-87
2023/08/19 14:20:37;;;;;;;;;2.75;1.00;;;;;;;;5081877;27;44988;-87
2023/08/19 14:23:03;;;;;;;;;0.00;0.00;;;;;;;;5082838;28;45415;-89
2023/08/19 14:25:29;;;;;;;;;0.50;0.50;;;;;;;;5076834;28;45590;-88
2023/08/19 14:27:55;;;;;;;;;1.25;1.25;;;;;;;;5097475;27;45370;-90
2023/08/19 14:30:20;;;;;;;;;0.25;0.25;;;;;;;;5079982;27;44782;-90